Time;durP1;ratioP1;P1;durP2;ratioP2;P2;SDS_P1;SDS_P2;PMS_P1;PMS_P2;Temp;Humidity;BMP_temperature;BMP_pressure;BME280_temperature;BME280_humidity;BME280_pressure;Samples;Min_cycle;Max_cycle;Signal;HPM_P1;HPM_P2
2021/07/09 00:01:04;;;;;;;10.95;8.00;;;;;;;;;;5136370;27;20038;-67
2021/07/09 00:03:30;;;;;;;20.40;7.75;;;;;;;;;;5135324;27;20134;-66
2021/07/09 00:05:56;;;;;;;15.43;7.70;;;;;;;;;;5135194;27;20098;-67
2021/07/09 00:08:22;;;;;;;11.88;8.32;;;;;;;;;;5116718;27;20027;-67
2021/07/09 00:10:49;;;;;;;14.88;7.90;;;;;;;;;;5135113;27;20122;-68
2021/07/09 00:13:15;;;;;;;9.65;7.32;;;;;;;;;;5116728;27;20110;-67
2021/07/09 00:15:41;;;;;;;11.45;7.75;;;;;;;;;;5135005;27;20019;-67
2021/07/09 00:18:07;;;;;;;14.05;8.25;;;;;;;;;;5134603;27;20038;-68
2021/07/09 00:20:34;;;;;;;10.77;8.23;;;;;;;;;;5116415;27;20023;-68
2021/07/09 00:23:00;;;;;;;13.10;7.75;;;;;;;;;;5134466;27;20066;-68
2021/07/09 00:25:26;;;;;;;16.23;8.10;;;;;;;;;;5116370;27;20028;-70
2021/07/09 00:27:53;;;;;;;8.70;7.90;;;;;;;;;;5134722;27;20038;-68
2021/07/09 00:30:19;;;;;;;14.00;8.50;;;;;;;;;;5134723;27;20027;-67
2021/07/09 00:32:46;;;;;;;11.32;8.40;;;;;;;;;;5135047;27;20102;-68
2021/07/09 00:35:12;;;;;;;12.60;8.32;;;;;;;;;;5134381;27;20388;-69
2021/07/09 00:37:38;;;;;;;14.50;8.45;;;;;;;;;;5134089;27;20539;-69
2021/07/09 00:40:09;;;;;;;12.05;9.13;;;;;;;;;;5134591;27;20157;-69
2021/07/09 00:42:35;;;;;;;15.68;9.65;;;;;;;;;;5134626;27;20436;-66
2021/07/09 00:45:02;;;;;;;16.30;8.45;;;;;;;;;;5134766;27;20027;-65
2021/07/09 00:47:28;;;;;;;15.02;9.10;;;;;;;;;;5116052;28;20023;-68
2021/07/09 00:49:54;;;;;;;17.60;9.13;;;;;;;;;;5115984;27;20110;-66
2021/07/09 00:52:20;;;;;;;15.98;8.50;;;;;;;;;;5134166;27;20023;-68
2021/07/09 00:54:46;;;;;;;17.02;9.65;;;;;;;;;;5115919;27;20525;-66
2021/07/09 00:57:14;;;;;;;19.70;9.32;;;;;;;;;;5134530;27;20078;-67
2021/07/09 00:59:41;;;;;;;13.73;9.40;;;;;;;;;;5134255;27;20027;-68
2021/07/09 01:02:07;;;;;;;12.15;8.85;;;;;;;;;;5134518;27;20102;-66
2021/07/09 01:04:33;;;;;;;18.73;9.65;;;;;;;;;;5134506;27;20114;-66
2021/07/09 01:07:00;;;;;;;23.75;9.18;;;;;;;;;;5133912;27;20436;-68
2021/07/09 01:09:26;;;;;;;15.57;9.43;;;;;;;;;;5134083;27;20027;-66
2021/07/09 01:11:52;;;;;;;15.68;9.60;;;;;;;;;;5134152;27;20483;-67
2021/07/09 01:14:20;;;;;;;22.90;9.43;;;;;;;;;;5134161;27;20033;-70
2021/07/09 01:16:46;;;;;;;14.05;8.70;;;;;;;;;;5134084;27;20011;-67
2021/07/09 01:19:14;;;;;;;13.70;9.32;;;;;;;;;;5133995;28;20042;-66
2021/07/09 01:21:41;;;;;;;11.15;8.80;;;;;;;;;;5134034;28;20494;-67
2021/07/09 01:24:09;;;;;;;13.75;9.00;;;;;;;;;;5134063;28;20079;-68
2021/07/09 01:26:36;;;;;;;13.07;8.52;;;;;;;;;;5133702;28;20371;-66
2021/07/09 01:29:03;;;;;;;11.70;9.15;;;;;;;;;;5133869;28;20133;-67
2021/07/09 01:31:29;;;;;;;15.73;9.27;;;;;;;;;;5115137;28;20023;-69
2021/07/09 01:33:55;;;;;;;11.20;9.05;;;;;;;;;;5135034;27;20035;-68
2021/07/09 01:36:22;;;;;;;10.55;9.55;;;;;;;;;;5137618;27;20129;-67
2021/07/09 01:38:48;;;;;;;12.48;9.40;;;;;;;;;;5118196;28;20051;-69
2021/07/09 01:41:16;;;;;;;11.20;9.73;;;;;;;;;;5136419;28;20417;-69
2021/07/09 01:43:42;;;;;;;10.52;9.13;;;;;;;;;;5136622;28;20015;-69
2021/07/09 01:46:08;;;;;;;13.80;9.30;;;;;;;;;;5136854;28;20467;-70
2021/07/09 01:48:35;;;;;;;13.75;9.40;;;;;;;;;;5136426;28;20039;-68
2021/07/09 01:51:01;;;;;;;24.35;9.75;;;;;;;;;;5136504;28;20019;-66
2021/07/09 01:53:28;;;;;;;11.60;9.32;;;;;;;;;;5136518;28;20019;-68
2021/07/09 01:55:54;;;;;;;14.27;9.98;;;;;;;;;;5136442;28;20110;-69
2021/07/09 01:58:20;;;;;;;12.18;10.02;;;;;;;;;;5136104;28;20107;-68
2021/07/09 02:00:47;;;;;;;12.48;9.95;;;;;;;;;;5136341;28;20023;-70
2021/07/09 02:03:14;;;;;;;15.23;11.00;;;;;;;;;;5136423;28;20404;-70
2021/07/09 02:05:40;;;;;;;17.05;11.90;;;;;;;;;;5117750;28;20027;-69
2021/07/09 02:08:06;;;;;;;15.07;11.05;;;;;;;;;;5117713;28;20386;-66
2021/07/09 02:10:34;;;;;;;16.45;11.52;;;;;;;;;;5136156;28;20467;-69
2021/07/09 02:13:01;;;;;;;15.75;11.15;;;;;;;;;;5117736;28;20110;-69
2021/07/09 02:15:29;;;;;;;18.25;11.10;;;;;;;;;;5117896;28;20106;-68
2021/07/09 02:17:56;;;;;;;13.82;10.98;;;;;;;;;;5136629;28;20506;-66
2021/07/09 02:20:23;;;;;;;13.77;10.30;;;;;;;;;;5136651;28;20031;-69
2021/07/09 02:22:49;;;;;;;14.93;10.68;;;;;;;;;;5118481;28;20103;-68
2021/07/09 02:25:16;;;;;;;19.02;11.07;;;;;;;;;;5137449;28;20012;-68
2021/07/09 02:27:44;;;;;;;12.48;11.15;;;;;;;;;;5117746;28;20030;-68
2021/07/09 02:30:12;;;;;;;12.98;10.82;;;;;;;;;;5135909;28;20523;-70
2021/07/09 02:32:41;;;;;;;14.32;9.90;;;;;;;;;;5135824;28;20023;-70
2021/07/09 02:35:09;;;;;;;11.77;10.57;;;;;;;;;;5117369;28;20110;-68
2021/07/09 02:37:35;;;;;;;14.48;10.38;;;;;;;;;;5090066;27;1312354;-66
2021/07/09 02:40:01;;;;;;;19.23;10.43;;;;;;;;;;5118507;27;20385;-68
2021/07/09 02:42:27;;;;;;;15.35;10.25;;;;;;;;;;5118418;27;20015;-69
2021/07/09 02:44:54;;;;;;;11.98;10.35;;;;;;;;;;5117984;27;20072;-67
2021/07/09 02:47:20;;;;;;;13.52;9.95;;;;;;;;;;5136407;27;20447;-66
2021/07/09 02:49:46;;;;;;;12.18;9.77;;;;;;;;;;5136767;27;20089;-67
2021/07/09 02:52:12;;;;;;;12.20;10.07;;;;;;;;;;5117941;27;20026;-66
2021/07/09 02:54:38;;;;;;;15.27;10.32;;;;;;;;;;5136661;27;20383;-66
2021/07/09 02:57:05;;;;;;;15.55;10.13;;;;;;;;;;5136607;27;20076;-66
2021/07/09 02:59:31;;;;;;;12.75;10.43;;;;;;;;;;5136821;27;20106;-65
2021/07/09 03:01:57;;;;;;;11.18;9.38;;;;;;;;;;5136535;27;20581;-67
2021/07/09 03:04:24;;;;;;;15.07;9.80;;;;;;;;;;5136487;27;20031;-67
2021/07/09 03:06:50;;;;;;;12.88;9.75;;;;;;;;;;5136342;27;20011;-68
2021/07/09 03:09:16;;;;;;;12.07;9.43;;;;;;;;;;5117781;27;20074;-69
2021/07/09 03:11:42;;;;;;;11.52;9.48;;;;;;;;;;5136341;27;20110;-67
2021/07/09 03:14:09;;;;;;;11.32;8.85;;;;;;;;;;5136338;27;20485;-69
2021/07/09 03:16:36;;;;;;;16.13;9.40;;;;;;;;;;5136222;27;20027;-70
2021/07/09 03:19:04;;;;;;;18.67;9.75;;;;;;;;;;5135887;27;20106;-67
2021/07/09 03:21:30;;;;;;;11.05;9.77;;;;;;;;;;5117628;27;20023;-70
2021/07/09 03:23:56;;;;;;;21.38;10.55;;;;;;;;;;5136110;27;20019;-69
2021/07/09 03:26:23;;;;;;;10.85;9.40;;;;;;;;;;5136040;27;20027;-68
2021/07/09 03:28:49;;;;;;;17.88;9.27;;;;;;;;;;5135657;27;20039;-68
2021/07/09 03:31:15;;;;;;;11.00;9.85;;;;;;;;;;5135964;27;20015;-70
2021/07/09 03:33:41;;;;;;;15.43;9.77;;;;;;;;;;5117520;27;20151;-68
2021/07/09 03:36:07;;;;;;;11.18;9.32;;;;;;;;;;5135733;27;20043;-68
2021/07/09 03:38:34;;;;;;;11.80;8.93;;;;;;;;;;5135498;27;20539;-68
2021/07/09 03:41:00;;;;;;;12.18;10.10;;;;;;;;;;5135738;27;20050;-68
2021/07/09 03:43:27;;;;;;;14.60;10.57;;;;;;;;;;5117245;27;20112;-66
2021/07/09 03:45:53;;;;;;;13.93;9.13;;;;;;;;;;5135599;27;20531;-66
2021/07/09 03:48:19;;;;;;;11.82;9.77;;;;;;;;;;5117051;27;20038;-69
2021/07/09 03:50:45;;;;;;;13.68;9.02;;;;;;;;;;5117125;27;20034;-67
2021/07/09 03:53:12;;;;;;;14.05;10.95;;;;;;;;;;5135523;27;20355;-67
2021/07/09 03:55:38;;;;;;;12.02;10.60;;;;;;;;;;5135491;27;20021;-71
2021/07/09 03:58:04;;;;;;;12.02;10.75;;;;;;;;;;5134845;27;20055;-67
2021/07/09 04:00:31;;;;;;;20.05;9.35;;;;;;;;;;5135385;27;20023;-70
2021/07/09 04:02:57;;;;;;;17.55;9.52;;;;;;;;;;5135294;27;20031;-71
2021/07/09 04:05:23;;;;;;;16.45;9.48;;;;;;;;;;5135316;27;20023;-69
2021/07/09 04:07:49;;;;;;;16.27;9.57;;;;;;;;;;5135112;27;20039;-67
2021/07/09 04:10:16;;;;;;;11.18;10.00;;;;;;;;;;5135358;27;20412;-67
2021/07/09 04:12:43;;;;;;;16.02;9.10;;;;;;;;;;5135071;27;20521;-68
2021/07/09 04:15:09;;;;;;;16.95;9.18;;;;;;;;;;5135136;27;20038;-70
2021/07/09 04:17:36;;;;;;;14.23;9.70;;;;;;;;;;5116593;27;20114;-69
2021/07/09 04:20:02;;;;;;;16.55;8.85;;;;;;;;;;5116430;27;20106;-67
2021/07/09 04:22:28;;;;;;;18.17;9.27;;;;;;;;;;5134834;27;20051;-68
2021/07/09 04:24:55;;;;;;;12.98;9.38;;;;;;;;;;5116384;27;20106;-68
2021/07/09 04:27:21;;;;;;;20.30;10.27;;;;;;;;;;5134751;27;20012;-69
2021/07/09 04:29:47;;;;;;;10.02;8.98;;;;;;;;;;5116282;27;20110;-68
2021/07/09 04:32:13;;;;;;;15.25;9.32;;;;;;;;;;5116253;27;20042;-68
2021/07/09 04:34:40;;;;;;;12.93;8.98;;;;;;;;;;5116142;27;20421;-67
2021/07/09 04:37:08;;;;;;;15.93;9.30;;;;;;;;;;5115921;27;20043;-69
2021/07/09 04:39:36;;;;;;;13.85;9.57;;;;;;;;;;5116188;27;20061;-67
2021/07/09 04:42:03;;;;;;;20.35;9.68;;;;;;;;;;5134614;27;20015;-67
2021/07/09 04:44:29;;;;;;;24.25;9.57;;;;;;;;;;5116164;27;20055;-67
2021/07/09 04:46:55;;;;;;;12.57;9.20;;;;;;;;;;5134407;27;20015;-68
2021/07/09 04:49:21;;;;;;;12.48;8.95;;;;;;;;;;5134314;27;20038;-68
2021/07/09 04:51:48;;;;;;;15.77;9.40;;;;;;;;;;5134281;27;20478;-68
2021/07/09 04:54:14;;;;;;;19.40;9.80;;;;;;;;;;5133712;27;20027;-68
2021/07/09 04:56:40;;;;;;;18.08;8.80;;;;;;;;;;5115559;27;20035;-68
2021/07/09 04:59:07;;;;;;;12.00;8.80;;;;;;;;;;5134210;27;20094;-68
2021/07/09 05:01:33;;;;;;;15.02;8.73;;;;;;;;;;5133911;27;20019;-67
2021/07/09 05:03:59;;;;;;;15.50;9.13;;;;;;;;;;5134247;27;20019;-67
2021/07/09 05:06:26;;;;;;;12.68;9.27;;;;;;;;;;5115686;28;20075;-68
2021/07/09 05:08:52;;;;;;;14.40;8.77;;;;;;;;;;5115523;27;20027;-67
2021/07/09 05:11:19;;;;;;;12.10;9.00;;;;;;;;;;5115654;27;20023;-68
2021/07/09 05:13:45;;;;;;;10.90;9.10;;;;;;;;;;5134054;27;20101;-68
2021/07/09 05:16:11;;;;;;;18.38;9.38;;;;;;;;;;5134122;27;20026;-66
2021/07/09 05:18:37;;;;;;;12.25;10.00;;;;;;;;;;5134048;27;20057;-66
2021/07/09 05:21:04;;;;;;;15.50;8.85;;;;;;;;;;5133968;28;20047;-69
2021/07/09 05:23:30;;;;;;;15.63;9.02;;;;;;;;;;5133962;28;20034;-68
2021/07/09 05:25:56;;;;;;;10.13;8.40;;;;;;;;;;5134005;28;20359;-68
2021/07/09 05:28:22;;;;;;;17.10;9.10;;;;;;;;;;5133806;28;20031;-68
2021/07/09 05:30:49;;;;;;;11.13;8.60;;;;;;;;;;5115434;28;20084;-66
2021/07/09 05:33:16;;;;;;;9.05;8.05;;;;;;;;;;5133766;28;20115;-70
2021/07/09 05:35:43;;;;;;;18.35;8.90;;;;;;;;;;5115144;28;20048;-67
2021/07/09 05:38:09;;;;;;;13.82;8.35;;;;;;;;;;5133851;28;20035;-68
2021/07/09 05:40:35;;;;;;;11.27;8.35;;;;;;;;;;5133968;28;20519;-69
2021/07/09 05:43:01;;;;;;;18.38;8.65;;;;;;;;;;5133417;28;20451;-66
2021/07/09 05:45:29;;;;;;;12.77;8.63;;;;;;;;;;5133356;28;20015;-66
2021/07/09 05:47:55;;;;;;;17.65;8.75;;;;;;;;;;5133231;28;20114;-67
2021/07/09 05:50:22;;;;;;;12.30;8.38;;;;;;;;;;5133608;28;20531;-67
2021/07/09 05:52:48;;;;;;;11.98;9.05;;;;;;;;;;5115147;28;20053;-69
2021/07/09 05:55:14;;;;;;;12.30;8.30;;;;;;;;;;5133674;28;20094;-66
2021/07/09 05:57:41;;;;;;;12.60;7.95;;;;;;;;;;5133356;28;20074;-67
2021/07/09 06:00:08;;;;;;;23.17;9.40;;;;;;;;;;5133241;28;20019;-69
2021/07/09 06:02:35;;;;;;;19.45;8.63;;;;;;;;;;5133779;28;20039;-68
2021/07/09 06:05:01;;;;;;;11.55;8.18;;;;;;;;;;5133117;28;20023;-67
2021/07/09 06:07:28;;;;;;;19.13;8.70;;;;;;;;;;5114854;28;20030;-68
2021/07/09 06:09:54;;;;;;;18.98;8.50;;;;;;;;;;5132666;28;20349;-67
2021/07/09 06:12:20;;;;;;;17.90;8.30;;;;;;;;;;5132597;28;20072;-67
2021/07/09 06:14:46;;;;;;;23.95;8.10;;;;;;;;;;5132567;28;20120;-69
2021/07/09 06:17:12;;;;;;;8.98;7.30;;;;;;;;;;5132841;28;20072;-66
2021/07/09 06:19:38;;;;;;;25.20;8.93;;;;;;;;;;5114287;27;20049;-69
2021/07/09 06:22:05;;;;;;;17.92;8.77;;;;;;;;;;5136450;27;20156;-70
2021/07/09 06:24:31;;;;;;;11.30;7.80;;;;;;;;;;5136840;27;20621;-70
2021/07/09 06:26:57;;;;;;;18.50;8.32;;;;;;;;;;5118443;27;20033;-69
2021/07/09 06:29:23;;;;;;;15.20;8.18;;;;;;;;;;5137050;27;20042;-68
2021/07/09 06:31:50;;;;;;;14.00;8.15;;;;;;;;;;5136441;27;20571;-68
2021/07/09 06:34:16;;;;;;;13.23;7.70;;;;;;;;;;5137013;27;20114;-68
2021/07/09 06:36:42;;;;;;;13.90;7.85;;;;;;;;;;5136619;27;20051;-68
2021/07/09 06:39:08;;;;;;;25.38;8.27;;;;;;;;;;5137211;27;20035;-67
2021/07/09 06:41:34;;;;;;;15.98;8.95;;;;;;;;;;5136818;27;20169;-69
2021/07/09 06:44:01;;;;;;;10.13;7.32;;;;;;;;;;5136671;27;20054;-69
2021/07/09 06:46:27;;;;;;;9.30;7.57;;;;;;;;;;5136808;27;20020;-67
2021/07/09 06:48:54;;;;;;;11.00;7.30;;;;;;;;;;5136591;27;20084;-68
2021/07/09 06:51:20;;;;;;;13.88;7.30;;;;;;;;;;5136688;27;20023;-69
2021/07/09 06:53:50;;;;;;;12.35;7.25;;;;;;;;;;5136640;27;20053;-68
2021/07/09 06:56:16;;;;;;;12.45;6.97;;;;;;;;;;5136597;27;20465;-68
2021/07/09 06:58:43;;;;;;;14.38;7.47;;;;;;;;;;5136497;27;20712;-67
2021/07/09 07:01:09;;;;;;;9.38;7.60;;;;;;;;;;5118029;27;20027;-67
2021/07/09 07:03:36;;;;;;;9.63;6.57;;;;;;;;;;5136407;27;20537;-69
2021/07/09 07:06:02;;;;;;;11.40;7.15;;;;;;;;;;5136740;27;20110;-69
2021/07/09 07:08:29;;;;;;;11.07;6.38;;;;;;;;;;5136328;27;20504;-67
2021/07/09 07:10:56;;;;;;;12.02;6.80;;;;;;;;;;5136326;27;20043;-67
2021/07/09 07:13:24;;;;;;;9.00;7.13;;;;;;;;;;5136181;27;20031;-67
2021/07/09 07:15:50;;;;;;;8.70;6.15;;;;;;;;;;5136309;27;20015;-68
2021/07/09 07:18:16;;;;;;;15.93;6.70;;;;;;;;;;5136136;27;20475;-68
2021/07/09 07:20:45;;;;;;;12.65;7.22;;;;;;;;;;5136175;27;20058;-68
2021/07/09 07:23:15;;;;;;;14.75;7.20;;;;;;;;;;5135206;27;20539;-68
2021/07/09 07:25:42;;;;;;;9.20;6.23;;;;;;;;;;5117008;27;20095;-67
2021/07/09 07:28:08;;;;;;;15.77;6.35;;;;;;;;;;5134093;27;20110;-66
2021/07/09 07:30:35;;;;;;;13.00;6.80;;;;;;;;;;5134616;27;20050;-69
2021/07/09 07:33:02;;;;;;;9.80;6.85;;;;;;;;;;5134880;27;20030;-67
2021/07/09 07:35:34;;;;;;;12.07;6.38;;;;;;;;;;5135343;27;20023;-67
2021/07/09 07:38:00;;;;;;;9.05;6.35;;;;;;;;;;5116891;27;20130;-68
2021/07/09 07:40:26;;;;;;;11.88;6.32;;;;;;;;;;5117294;27;20019;-69
2021/07/09 07:42:52;;;;;;;10.35;6.28;;;;;;;;;;5135632;27;20486;-67
2021/07/09 07:45:19;;;;;;;11.38;6.15;;;;;;;;;;5117100;27;20390;-67
2021/07/09 07:47:45;;;;;;;9.98;6.55;;;;;;;;;;5135650;27;20031;-69
2021/07/09 07:50:13;;;;;;;14.15;6.75;;;;;;;;;;5116973;27;20114;-68
2021/07/09 07:52:39;;;;;;;11.80;6.00;;;;;;;;;;5135435;27;20106;-68
2021/07/09 07:55:06;;;;;;;6.10;5.50;;;;;;;;;;5135069;27;20042;-67
2021/07/09 07:57:32;;;;;;;12.68;6.30;;;;;;;;;;5135139;27;20436;-66
2021/07/09 07:59:58;;;;;;;11.70;6.75;;;;;;;;;;5116855;27;20023;-68
2021/07/09 08:02:24;;;;;;;14.50;7.07;;;;;;;;;;5135333;27;20130;-69
2021/07/09 08:04:51;;;;;;;11.43;6.00;;;;;;;;;;5135460;27;20023;-69
2021/07/09 08:07:17;;;;;;;9.88;6.85;;;;;;;;;;5133955;27;20487;-69
2021/07/09 08:09:43;;;;;;;13.15;6.43;;;;;;;;;;5133834;27;20046;-68
2021/07/09 08:12:10;;;;;;;11.00;6.22;;;;;;;;;;5116397;27;20023;-68
2021/07/09 08:14:36;;;;;;;6.93;6.30;;;;;;;;;;5135077;27;20068;-70
2021/07/09 08:17:03;;;;;;;8.80;5.47;;;;;;;;;;5134933;27;20027;-69
2021/07/09 08:19:30;;;;;;;12.45;6.45;;;;;;;;;;5134975;27;20047;-69
2021/07/09 08:21:56;;;;;;;23.38;6.75;;;;;;;;;;5116385;27;20083;-69
2021/07/09 08:24:22;;;;;;;6.70;5.80;;;;;;;;;;5116397;27;20469;-69
2021/07/09 08:26:48;;;;;;;13.63;6.68;;;;;;;;;;5134901;27;20023;-67
2021/07/09 08:29:15;;;;;;;10.88;5.82;;;;;;;;;;5134768;27;20519;-67
2021/07/09 08:31:41;;;;;;;11.05;6.97;;;;;;;;;;5116396;27;20040;-67
2021/07/09 08:34:07;;;;;;;8.70;6.38;;;;;;;;;;5134673;27;20110;-70
2021/07/09 08:36:33;;;;;;;16.05;7.13;;;;;;;;;;5134675;27;20115;-70
2021/07/09 08:39:00;;;;;;;9.68;6.55;;;;;;;;;;5134597;27;20019;-69
2021/07/09 08:41:26;;;;;;;11.32;6.78;;;;;;;;;;5134482;27;20023;-69
2021/07/09 08:43:52;;;;;;;6.82;6.00;;;;;;;;;;5115700;27;20451;-69
2021/07/09 08:46:20;;;;;;;12.30;6.82;;;;;;;;;;5116039;27;20019;-68
2021/07/09 08:48:46;;;;;;;11.05;6.13;;;;;;;;;;5115845;27;20061;-69
2021/07/09 08:51:12;;;;;;;10.15;7.03;;;;;;;;;;5132908;27;20057;-70
2021/07/09 08:53:39;;;;;;;8.48;6.05;;;;;;;;;;5133246;27;20022;-69
2021/07/09 08:56:06;;;;;;;11.73;6.25;;;;;;;;;;5134138;27;20029;-70
2021/07/09 08:58:33;;;;;;;7.50;6.80;;;;;;;;;;5115849;27;20118;-69
2021/07/09 09:00:59;;;;;;;10.75;6.45;;;;;;;;;;5133852;27;20079;-68
2021/07/09 09:03:26;;;;;;;13.63;6.05;;;;;;;;;;5115790;27;20493;-71
2021/07/09 09:05:59;;;;;;;8.20;5.85;;;;;;;;;;5134021;27;20076;-69
2021/07/09 09:08:25;;;;;;;6.97;5.78;;;;;;;;;;5133676;27;20038;-67
2021/07/09 09:11:00;;;;;;;8.25;5.88;;;;;;;;;;5115585;27;20463;-68
2021/07/09 09:13:27;;;;;;;8.15;6.13;;;;;;;;;;5115717;27;20461;-68
2021/07/09 09:16:04;;;;;;;8.82;6.15;;;;;;;;;;5133956;27;20032;-68
2021/07/09 09:18:33;;;;;;;8.60;6.25;;;;;;;;;;5114210;28;20029;-69
2021/07/09 09:21:11;;;;;;;11.68;6.40;;;;;;;;;;5132480;27;20019;-69
2021/07/09 09:23:51;;;;;;;10.23;6.35;;;;;;;;;;5133003;28;20039;-68
2021/07/09 09:26:35;;;;;;;10.45;6.30;;;;;;;;;;5133170;28;20022;-66
2021/07/09 09:29:02;;;;;;;9.88;5.90;;;;;;;;;;5132952;28;20031;-68
2021/07/09 09:31:33;;;;;;;16.42;6.22;;;;;;;;;;5113805;28;20106;-68
2021/07/09 09:34:03;;;;;;;7.88;6.47;;;;;;;;;;5113959;28;20102;-68
2021/07/09 09:36:29;;;;;;;10.30;6.38;;;;;;;;;;5133823;28;20043;-68
2021/07/09 09:38:59;;;;;;;8.05;5.97;;;;;;;;;;5133553;28;20444;-69
2021/07/09 09:41:25;;;;;;;8.40;5.82;;;;;;;;;;5115141;28;20019;-68
2021/07/09 09:43:52;;;;;;;7.68;5.53;;;;;;;;;;5133916;28;20090;-68
2021/07/09 09:46:28;;;;;;;8.05;5.63;;;;;;;;;;5114760;28;20110;-68
2021/07/09 09:48:54;;;;;;;9.07;5.80;;;;;;;;;;5133327;28;20027;-67
2021/07/09 09:51:31;;;;;;;6.75;5.90;;;;;;;;;;5132834;28;20083;-68
2021/07/09 09:54:01;;;;;;;7.53;6.10;;;;;;;;;;5133335;27;20015;-68
2021/07/09 09:56:47;;;;;;;8.88;6.30;;;;;;;;;;5118876;27;20808;-69
2021/07/09 09:59:18;;;;;;;9.77;5.57;;;;;;;;;;5118581;27;20142;-67
2021/07/09 10:01:48;;;;;;;7.25;5.93;;;;;;;;;;5119081;27;20066;-69
2021/07/09 10:04:15;;;;;;;9.20;6.25;;;;;;;;;;5137716;27;20023;-69
2021/07/09 10:06:42;;;;;;;10.55;6.30;;;;;;;;;;5119180;27;20518;-69
2021/07/09 10:09:09;;;;;;;7.57;6.70;;;;;;;;;;5137586;27;20065;-68
2021/07/09 10:11:36;;;;;;;9.23;5.38;;;;;;;;;;5137446;27;20222;-68
2021/07/09 10:14:02;;;;;;;10.95;6.45;;;;;;;;;;5137474;27;20098;-69
2021/07/09 10:16:28;;;;;;;9.88;5.97;;;;;;;;;;5137418;27;20079;-67
2021/07/09 10:18:55;;;;;;;6.45;5.85;;;;;;;;;;5136838;27;20019;-67
2021/07/09 10:21:21;;;;;;;12.73;6.18;;;;;;;;;;5137481;27;20069;-68
2021/07/09 10:23:48;;;;;;;7.80;5.80;;;;;;;;;;5137355;27;20062;-67
2021/07/09 10:26:19;;;;;;;8.60;5.70;;;;;;;;;;5136806;27;20027;-69
2021/07/09 10:29:03;;;;;;;7.82;6.18;;;;;;;;;;5137269;27;20031;-67
2021/07/09 10:31:38;;;;;;;7.38;6.30;;;;;;;;;;5136830;27;20446;-67
2021/07/09 10:34:23;;;;;;;9.40;6.38;;;;;;;;;;5137239;27;20102;-66
2021/07/09 10:37:01;;;;;;;12.55;6.13;;;;;;;;;;5118418;27;20834;-69
2021/07/09 10:39:34;;;;;;;9.52;6.32;;;;;;;;;;5136238;27;20084;-67
2021/07/09 10:42:19;;;;;;;7.05;6.35;;;;;;;;;;5118608;27;20035;-67
2021/07/09 10:45:04;;;;;;;9.07;6.20;;;;;;;;;;5118470;27;20427;-67
2021/07/09 10:47:38;;;;;;;7.22;5.78;;;;;;;;;;5118403;27;20027;-68
2021/07/09 10:50:05;;;;;;;6.82;6.07;;;;;;;;;;5136733;27;20107;-69
2021/07/09 10:52:46;;;;;;;6.55;5.85;;;;;;;;;;5118200;27;20027;-70
2021/07/09 10:55:12;;;;;;;;;;;;;;;;;;5137125;27;20020;-69
2021/07/09 10:57:39;;;;;;;10.05;5.63;;;;;;;;;;5117807;27;19948;-71
2021/07/09 11:00:21;;;;;;;10.63;6.18;;;;;;;;;;5136643;27;20024;-67
2021/07/09 11:03:04;;;;;;;6.93;5.70;;;;;;;;;;5138004;27;20020;-68
2021/07/09 11:05:43;;;;;;;7.78;5.90;;;;;;;;;;5137200;27;20023;-67
2021/07/09 11:08:27;;;;;;;10.18;6.47;;;;;;;;;;5137194;27;20023;-69
2021/07/09 11:10:57;;;;;;;8.93;5.75;;;;;;;;;;5118401;27;20122;-70
2021/07/09 11:13:42;;;;;;;14.45;6.72;;;;;;;;;;5137346;27;20054;-69
2021/07/09 11:16:22;;;;;;;11.20;6.07;;;;;;;;;;5137321;27;20118;-70
2021/07/09 11:18:57;;;;;;;13.17;5.63;;;;;;;;;;5136134;27;20379;-69
2021/07/09 11:21:29;;;;;;;7.97;5.32;;;;;;;;;;5135758;27;20031;-70
2021/07/09 11:23:59;;;;;;;16.77;6.22;;;;;;;;;;5135839;27;20023;-70
2021/07/09 11:26:26;;;;;;;7.20;6.10;;;;;;;;;;5136357;27;20520;-70
2021/07/09 11:28:53;;;;;;;10.30;6.57;;;;;;;;;;5135576;27;20031;-70
2021/07/09 11:31:31;;;;;;;8.95;5.75;;;;;;;;;;5135973;27;20372;-66
2021/07/09 11:34:04;;;;;;;8.70;6.13;;;;;;;;;;5135591;27;20383;-68
2021/07/09 11:37:00;;;;;;;7.90;6.50;;;;;;;;;;5135140;27;20047;-68
2021/07/09 11:39:28;;;;;;;8.05;5.70;;;;;;;;;;5113261;27;20111;-69
2021/07/09 11:41:57;;;;;;;8.38;5.78;;;;;;;;;;5135724;27;20497;-66
2021/07/09 11:44:24;;;;;;;6.75;5.65;;;;;;;;;;5135699;27;20463;-67
2021/07/09 11:46:51;;;;;;;8.98;5.80;;;;;;;;;;5135416;27;20033;-67
2021/07/09 11:49:34;;;;;;;9.75;5.43;;;;;;;;;;5116847;27;20046;-66
2021/07/09 11:52:08;;;;;;;6.20;5.70;;;;;;;;;;5135408;27;20023;-68
2021/07/09 11:54:36;;;;;;;9.40;5.65;;;;;;;;;;5117022;27;20027;-66
2021/07/09 11:57:07;;;;;;;10.65;5.53;;;;;;;;;;5135379;27;20015;-66
2021/07/09 11:59:33;;;;;;;9.65;5.45;;;;;;;;;;5135262;27;20031;-69
2021/07/09 12:02:10;;;;;;;11.88;5.55;;;;;;;;;;5135132;27;20087;-69
2021/07/09 12:04:37;;;;;;;6.13;4.97;;;;;;;;;;5135115;27;20023;-68
2021/07/09 12:07:27;;;;;;;6.18;5.10;;;;;;;;;;5135030;27;20030;-68
2021/07/09 12:09:54;;;;;;;5.72;5.10;;;;;;;;;;5103487;27;20046;-68
2021/07/09 12:12:22;;;;;;;11.73;5.18;;;;;;;;;;5134941;27;20047;-66
2021/07/09 12:14:56;;;;;;;6.50;5.43;;;;;;;;;;5128845;27;20043;-68
2021/07/09 12:17:23;;;;;;;6.75;5.40;;;;;;;;;;5131999;27;20048;-68
2021/07/09 12:20:04;;;;;;;6.35;5.32;;;;;;;;;;5114374;27;20023;-67
2021/07/09 12:22:41;;;;;;;5.47;5.00;;;;;;;;;;5134247;27;20023;-66
2021/07/09 12:25:12;;;;;;;6.65;5.00;;;;;;;;;;5134431;27;20015;-65
2021/07/09 12:27:38;;;;;;;8.52;5.75;;;;;;;;;;5134106;27;20064;-67
2021/07/09 12:30:09;;;;;;;6.70;6.03;;;;;;;;;;5134391;27;20023;-67
2021/07/09 12:32:35;;;;;;;;;;;;;;;;;;5116636;27;20023;-68
2021/07/09 12:35:05;;;;;;;5.55;5.03;;;;;;;;;;5131719;27;19903;-67
2021/07/09 12:37:32;;;;;;;9.82;5.65;;;;;;;;;;5134427;27;20047;-67
2021/07/09 12:40:15;;;;;;;9.38;5.60;;;47.60;45.20;;;;;;5116115;27;20061;-68
2021/07/09 12:42:42;;;;;;;8.65;5.13;;;47.80;45.40;;;;;;5130497;27;20035;-67
2021/07/09 12:45:09;;;;;;;10.40;5.32;;;48.20;44.60;;;;;;5134446;27;20019;-68
2021/07/09 12:47:47;;;;;;;5.93;5.32;;;48.70;68.80;;;;;;5134698;27;20034;-69
2021/07/09 12:50:23;;;;;;;7.88;5.20;;;48.80;43.20;;;;;;5115969;27;20023;-68
2021/07/09 12:52:50;;;;;;;5.50;4.47;;;49.00;42.40;;;;;;5134347;27;20035;-69
2021/07/09 12:55:36;;;;;;;6.70;4.80;;;49.30;46.20;;;;;;5115724;27;20023;-67
2021/07/09 12:58:31;;;;;;;7.82;4.72;;;50.10;56.50;;;;;;5134274;27;20031;-69
2021/07/09 13:01:07;;;;;;;6.63;4.90;;;50.10;40.30;;;;;;5113261;27;20031;-68
2021/07/09 13:03:34;;;;;;;8.10;4.50;;;49.90;40.00;;;;;;5133852;27;20450;-66
2021/07/09 13:06:12;;;;;;;5.93;4.75;;;49.90;41.40;;;;;;5133979;27;20107;-67
2021/07/09 13:08:41;;;;;;;6.25;4.40;;;50.40;40.20;;;;;;5133910;27;20023;-66
2021/07/09 13:11:16;;;;;;;6.00;4.38;;;50.50;40.80;;;;;;5133970;27;20019;-67
2021/07/09 13:13:53;;;;;;;10.75;4.90;;;50.40;39.90;;;;;;5133999;27;20154;-67
2021/07/09 13:16:21;;;;;;;4.90;4.47;;;50.90;39.70;;;;;;5134182;27;20023;-66
2021/07/09 13:19:03;;;;;;;8.02;4.35;;;51.50;39.90;;;;;;5133893;27;20027;-68
2021/07/09 13:21:49;;;;;;;7.10;4.28;;;50.80;39.70;;;;;;5131279;27;20029;-67
2021/07/09 13:24:15;;;;;;;5.18;4.03;;;48.20;41.10;;;;;;5133953;28;20458;-66
2021/07/09 13:26:44;;;;;;;8.93;4.95;;;49.10;70.10;;;;;;5133783;28;20029;-66
2021/07/09 13:29:23;;;;;;;5.38;3.95;;;49.20;56.90;;;;;;5135350;27;20039;-66
2021/07/09 13:31:53;;;;;;;4.80;4.05;;;50.00;40.90;;;;;;5138141;27;20110;-67
2021/07/09 13:34:19;;;;;;;4.85;4.40;;;50.90;40.10;;;;;;5138009;27;20464;-68
2021/07/09 13:36:46;;;;;;;4.28;3.95;;;51.70;40.00;;;;;;5137419;27;20062;-67
2021/07/09 13:39:13;;;;;;;6.60;4.75;;;52.00;39.10;;;;;;5137995;27;20118;-67
2021/07/09 13:41:40;;;;;;;10.70;4.35;;;52.00;39.10;;;;;;5119616;27;20033;-69
2021/07/09 13:44:06;;;;;;;8.07;3.95;;;50.60;39.80;;;;;;5138268;27;20026;-68
2021/07/09 13:46:33;;;;;;;7.60;3.92;;;50.30;40.00;;;;;;5119431;27;20049;-68
2021/07/09 13:48:59;;;;;;;4.38;3.90;;;50.00;43.70;;;;;;5137714;27;20114;-67
2021/07/09 13:51:24;;;;;;;8.93;4.13;;;48.80;40.70;;;;;;5137800;27;20059;-67
2021/07/09 13:53:50;;;;;;;11.40;4.90;;;48.70;41.20;;;;;;5137692;27;20027;-69
2021/07/09 13:56:18;;;;;;;5.22;4.05;;;48.30;41.70;;;;;;5137519;27;20528;-69
2021/07/09 13:58:44;;;;;;;5.90;4.22;;;48.50;41.40;;;;;;5137661;27;20027;-69
2021/07/09 14:01:11;;;;;;;8.93;4.18;;;49.10;41.00;;;;;;5119163;27;20032;-69
2021/07/09 14:03:37;;;;;;;7.25;3.95;;;50.20;41.10;;;;;;5118899;27;20046;-69
2021/07/09 14:06:04;;;;;;;7.28;4.13;;;50.50;40.90;;;;;;5137529;27;20031;-69
2021/07/09 14:08:30;;;;;;;7.63;4.20;;;51.10;51.80;;;;;;5137557;27;20539;-70
2021/07/09 14:10:59;;;;;;;7.80;4.10;;;50.90;39.50;;;;;;5118705;27;20023;-70
2021/07/09 14:13:27;;;;;;;3.78;3.47;;;50.80;39.40;;;;;;5136990;27;20023;-69
2021/07/09 14:15:54;;;;;;;4.55;4.15;;;50.30;39.60;;;;;;5136909;27;20031;-70
2021/07/09 14:18:20;;;;;;;6.05;3.72;;;;;;;;;;5137025;27;20029;-67
2021/07/09 14:20:47;;;;;;;6.63;3.97;;;;;;;;;;5136968;27;20095;-68
2021/07/09 14:23:16;;;;;;;9.93;4.35;;;;;;;;;;5134998;27;20487;-69
2021/07/09 14:25:43;;;;;;;6.63;4.27;;;;;;;;;;5136590;27;20030;-66